createdAt,value
2023-02-14T00:00:45.132Z,5.70
2023-02-14T00:03:33.144Z,5.70
2023-02-14T00:06:19.682Z,5.80
2023-02-14T00:09:09.040Z,5.70
2023-02-14T00:11:55.470Z,5.70
2023-02-14T00:15:01.357Z,5.70
2023-02-14T00:17:48.050Z,5.60
2023-02-14T00:20:37.018Z,5.60
2023-02-14T00:23:31.114Z,5.50
2023-02-14T00:26:17.797Z,5.40
2023-02-14T00:29:04.180Z,5.50
2023-02-14T00:31:50.682Z,5.50
2023-02-14T00:34:38.593Z,5.50
2023-02-14T00:37:27.686Z,5.60
2023-02-14T00:40:15.899Z,5.50
2023-02-14T00:43:05.696Z,5.50
2023-02-14T00:45:52.378Z,5.40
2023-02-14T00:48:38.930Z,5.30
2023-02-14T00:51:25.961Z,5.40
2023-02-14T00:54:13.568Z,5.40
2023-02-14T00:57:00.314Z,5.40
2023-02-14T00:59:47.175Z,5.40
2023-02-14T01:02:33.586Z,5.40
2023-02-14T01:05:20.120Z,5.40
2023-02-14T01:08:06.851Z,5.40
2023-02-14T01:10:54.855Z,5.40
2023-02-14T01:13:42.300Z,5.40
2023-02-14T01:16:29.990Z,5.40
2023-02-14T01:19:16.720Z,5.40
2023-02-14T01:22:03.087Z,5.50
2023-02-14T01:24:49.498Z,5.40
2023-02-14T01:27:37.345Z,5.50
2023-02-14T01:30:24.000Z,5.50
2023-02-14T01:33:10.754Z,5.60
2023-02-14T01:35:58.300Z,5.60
2023-02-14T01:38:44.936Z,5.70
2023-02-14T01:41:33.612Z,5.60
2023-02-14T01:44:57.261Z,5.60
2023-02-14T01:47:45.674Z,5.60
2023-02-14T01:50:37.491Z,5.60
2023-02-14T01:53:29.146Z,5.60
2023-02-14T01:56:20.936Z,5.50
2023-02-14T01:59:11.637Z,5.50
2023-02-14T02:02:00.351Z,5.50
2023-02-14T02:04:47.738Z,5.50
2023-02-14T02:07:34.310Z,5.50
2023-02-14T02:10:21.448Z,5.50
2023-02-14T02:13:09.751Z,5.50
2023-02-14T02:16:13.943Z,5.50
2023-02-14T02:19:18.394Z,5.50
2023-02-14T02:22:36.024Z,5.50
2023-02-14T02:25:44.793Z,5.50
2023-02-14T02:28:56.231Z,5.50
2023-02-14T02:32:18.496Z,5.50
2023-02-14T02:35:20.437Z,5.40
2023-02-14T02:38:26.714Z,5.50
2023-02-14T02:41:27.190Z,5.50
2023-02-14T02:44:19.312Z,5.50
2023-02-14T02:47:10.208Z,5.50
2023-02-14T02:50:21.421Z,5.50
2023-02-14T02:53:17.688Z,5.50
2023-02-14T02:56:27.667Z,5.50
2023-02-14T02:59:19.196Z,5.50
2023-02-14T03:02:20.499Z,5.50
2023-02-14T03:05:07.350Z,5.50
2023-02-14T03:07:53.883Z,5.50
2023-02-14T03:10:41.811Z,5.40
2023-02-14T03:13:56.796Z,5.50
2023-02-14T03:16:54.973Z,5.50
2023-02-14T03:20:11.878Z,5.50
2023-02-14T03:23:05.125Z,5.50
2023-02-14T03:26:03.638Z,5.50
2023-02-14T03:28:59.120Z,5.50
2023-02-14T03:31:55.997Z,5.50
2023-02-14T03:34:52.676Z,5.40
2023-02-14T03:37:45.854Z,5.40
2023-02-14T03:40:37.360Z,5.50
2023-02-14T03:43:29.466Z,5.40
2023-02-14T03:46:21.149Z,5.40
2023-02-14T03:49:11.623Z,5.40
2023-02-14T03:52:01.224Z,5.40
2023-02-14T03:54:52.325Z,5.40
2023-02-14T03:57:48.073Z,5.40
2023-02-14T04:00:39.432Z,5.40
2023-02-14T04:03:28.382Z,5.20
2023-02-14T04:06:15.168Z,5.20
2023-02-14T04:09:01.401Z,5.20
2023-02-14T04:11:50.373Z,5.20
2023-02-14T04:14:37.192Z,5.10
2023-02-14T04:17:42.283Z,5.20
2023-02-14T04:20:29.252Z,5.20
2023-02-14T04:23:15.572Z,5.20
2023-02-14T04:26:03.641Z,5.20
2023-02-14T04:28:50.182Z,5.20
2023-02-14T04:31:36.680Z,5.10
2023-02-14T04:34:24.929Z,5.10
2023-02-14T04:37:11.903Z,5.20
2023-02-14T04:39:58.280Z,5.20
2023-02-14T04:42:44.659Z,5.30
2023-02-14T04:45:31.211Z,5.30
2023-02-14T04:48:17.544Z,5.20
2023-02-14T04:51:06.788Z,5.20
2023-02-14T04:53:53.205Z,5.20
2023-02-14T04:56:39.747Z,5.10
2023-02-14T04:59:26.690Z,5.10
2023-02-14T05:02:13.068Z,5.10
2023-02-14T05:04:59.416Z,5.10
2023-02-14T05:07:47.825Z,5.10
2023-02-14T05:10:34.609Z,5.10
2023-02-14T05:13:20.859Z,5.10
2023-02-14T05:16:07.697Z,5.10
2023-02-14T05:18:55.170Z,5.00
2023-02-14T05:21:41.608Z,5.10
2023-02-14T05:24:29.304Z,5.10
2023-02-14T05:27:15.960Z,5.10
2023-02-14T05:30:02.464Z,5.00
2023-02-14T05:32:48.808Z,5.00
2023-02-14T05:35:35.566Z,5.00
2023-02-14T05:38:22.375Z,5.00
2023-02-14T05:41:10.056Z,5.00
2023-02-14T05:43:56.852Z,5.00
2023-02-14T05:46:43.419Z,5.00
2023-02-14T05:49:29.741Z,5.00
2023-02-14T05:52:15.933Z,4.90
2023-02-14T05:55:02.377Z,4.90
2023-02-14T05:57:49.952Z,4.90
2023-02-14T06:00:38.388Z,5.00
2023-02-14T06:03:26.383Z,4.90
2023-02-14T06:06:12.999Z,4.90
2023-02-14T06:08:59.355Z,4.90
2023-02-14T06:11:45.892Z,4.90
2023-02-14T06:14:33.739Z,4.90
2023-02-14T06:17:20.068Z,4.90
2023-02-14T06:20:09.491Z,4.80
2023-02-14T06:22:56.230Z,4.70
2023-02-14T06:25:42.790Z,4.70
2023-02-14T06:28:29.060Z,4.70
2023-02-14T06:31:20.034Z,4.80
2023-02-14T06:34:06.850Z,4.90
2023-02-14T06:36:53.104Z,5.00
2023-02-14T06:39:39.476Z,4.90
2023-02-14T06:42:26.151Z,4.90
2023-02-14T06:45:12.754Z,5.00
2023-02-14T06:48:00.993Z,4.90
2023-02-14T06:50:47.884Z,4.90
2023-02-14T06:53:34.386Z,4.90
2023-02-14T06:56:21.086Z,4.80
2023-02-14T06:59:07.533Z,4.90
2023-02-14T07:01:53.995Z,4.90
2023-02-14T07:04:42.124Z,5.00
2023-02-14T07:07:28.672Z,4.90
2023-02-14T07:10:15.285Z,4.90
2023-02-14T07:13:01.785Z,4.90
2023-02-14T07:15:49.045Z,5.00
2023-02-14T07:18:35.240Z,5.00
2023-02-14T07:21:22.984Z,4.90
2023-02-14T07:24:09.609Z,4.80
2023-02-14T07:26:56.140Z,4.90
2023-02-14T07:29:42.535Z,4.90
2023-02-14T07:32:29.045Z,4.90
2023-02-14T07:35:15.725Z,5.00
2023-02-14T07:38:03.411Z,5.00
2023-02-14T07:40:50.125Z,5.00
2023-02-14T07:43:36.470Z,5.00
2023-02-14T07:46:22.905Z,5.10
2023-02-14T07:49:09.731Z,5.10
2023-02-14T07:51:56.090Z,5.30
2023-02-14T07:54:44.022Z,5.40
2023-02-14T07:57:30.781Z,5.40
2023-02-14T08:00:18.026Z,5.40
2023-02-14T08:03:04.476Z,5.40
2023-02-14T08:05:57.288Z,5.40
2023-02-14T08:08:43.928Z,5.50
2023-02-14T08:11:49.279Z,5.50
2023-02-14T08:14:35.822Z,5.60
2023-02-14T08:17:22.231Z,5.70
2023-02-14T08:20:09.185Z,5.70
2023-02-14T08:22:55.616Z,5.90
2023-02-14T08:25:42.090Z,6.20
2023-02-14T08:28:32.315Z,6.20
2023-02-14T08:31:34.416Z,6.20
2023-02-14T08:34:21.748Z,6.20
2023-02-14T08:37:08.089Z,6.40
2023-02-14T08:39:54.539Z,6.50
2023-02-14T08:42:40.853Z,6.50
2023-02-14T08:45:28.690Z,6.60
2023-02-14T08:48:15.021Z,6.70
2023-02-14T08:51:05.156Z,6.70
2023-02-14T08:53:53.076Z,6.70
2023-02-14T08:56:40.627Z,6.80
2023-02-14T08:59:27.402Z,6.90
2023-02-14T09:02:16.171Z,7.10
2023-02-14T09:05:02.504Z,7.40
2023-02-14T09:07:49.009Z,7.60
2023-02-14T09:10:35.384Z,7.80
2023-02-14T09:13:21.676Z,7.90
2023-02-14T09:16:10.237Z,8.00
2023-02-14T09:18:58.059Z,8.30
2023-02-14T09:21:44.742Z,8.30
2023-02-14T09:24:31.648Z,8.50
2023-02-14T09:27:18.030Z,8.70
2023-02-14T09:30:05.757Z,8.80
2023-02-14T09:32:53.631Z,9.00
2023-02-14T09:35:41.757Z,9.00
2023-02-14T09:38:28.450Z,9.00
2023-02-14T09:41:41.714Z,9.10
2023-02-14T09:44:35.378Z,9.30
2023-02-14T09:47:29.597Z,9.40
2023-02-14T09:50:23.215Z,9.60
2023-02-14T09:53:21.613Z,9.90
2023-02-14T09:56:15.174Z,10.10
2023-02-14T09:59:08.913Z,10.20
2023-02-14T10:02:02.674Z,10.20
2023-02-14T10:04:58.860Z,10.30
2023-02-14T10:07:57.360Z,10.40
2023-02-14T10:10:48.391Z,10.30
2023-02-14T10:13:40.161Z,10.30
2023-02-14T10:16:31.131Z,10.40
2023-02-14T10:19:22.567Z,10.50
2023-02-14T10:22:14.766Z,10.50
2023-02-14T10:25:05.026Z,10.60
2023-02-14T10:27:56.600Z,10.70
2023-02-14T10:30:50.881Z,10.90
2023-02-14T10:33:39.669Z,11.00
2023-02-14T10:36:51.528Z,11.00
2023-02-14T10:39:57.535Z,11.10
2023-02-14T10:42:50.646Z,11.10
2023-02-14T10:45:42.974Z,11.10
2023-02-14T10:48:38.748Z,10.80
2023-02-14T10:51:33.863Z,10.80
2023-02-14T10:54:23.479Z,10.80
2023-02-14T10:57:16.555Z,10.70
2023-02-14T11:00:06.602Z,10.30
2023-02-14T11:02:58.891Z,10.50
2023-02-14T11:05:47.617Z,10.60
2023-02-14T11:08:35.942Z,10.60
2023-02-14T11:11:27.135Z,10.50
2023-02-14T11:17:29.586Z,10.00
2023-02-14T11:20:27.843Z,10.00
2023-02-14T11:23:22.185Z,9.70
2023-02-14T11:26:15.415Z,9.80
2023-02-14T11:29:05.013Z,9.70
2023-02-14T11:31:51.845Z,9.60
2023-02-14T11:34:40.945Z,9.40
2023-02-14T11:37:31.418Z,9.40
2023-02-14T11:40:28.189Z,9.50
2023-02-14T11:43:31.842Z,9.40
2023-02-14T11:46:27.977Z,9.40
2023-02-14T11:49:28.370Z,9.30
2023-02-14T11:52:19.551Z,9.30
2023-02-14T11:55:08.110Z,9.30
2023-02-14T11:57:56.085Z,9.20
2023-02-14T12:00:51.810Z,9.30
2023-02-14T12:03:44.881Z,9.50
2023-02-14T12:06:34.671Z,9.30
2023-02-14T12:09:30.223Z,9.40
2023-02-14T12:12:20.763Z,9.50
2023-02-14T12:15:41.252Z,9.40
2023-02-14T12:18:50.088Z,9.50
2023-02-14T12:21:48.978Z,9.40
2023-02-14T12:24:39.323Z,9.30
2023-02-14T12:27:33.667Z,9.30
2023-02-14T12:30:24.497Z,9.20
2023-02-14T12:33:18.738Z,9.20
2023-02-14T12:36:11.499Z,9.30
2023-02-14T12:39:08.523Z,9.30
2023-02-14T12:42:06.873Z,9.30
2023-02-14T12:45:03.801Z,9.30
2023-02-14T12:48:01.789Z,9.30
2023-02-14T12:50:55.516Z,9.30
2023-02-14T12:54:08.584Z,9.30
2023-02-14T12:57:05.767Z,9.20
2023-02-14T13:00:03.782Z,9.30
2023-02-14T13:03:11.476Z,9.30
2023-02-14T13:06:05.071Z,9.30
2023-02-14T13:09:10.285Z,9.30
2023-02-14T13:12:07.157Z,9.20
2023-02-14T13:15:03.980Z,9.20
2023-02-14T13:17:54.108Z,9.20
2023-02-14T13:20:57.992Z,9.30
2023-02-14T13:23:48.035Z,9.40
2023-02-14T13:26:38.964Z,9.30
2023-02-14T13:29:29.479Z,9.40
2023-02-14T13:32:22.684Z,9.40
2023-02-14T13:35:16.331Z,9.40
2023-02-14T13:38:07.593Z,9.50
2023-02-14T13:40:55.459Z,9.40
2023-02-14T13:44:05.304Z,9.40
2023-02-14T13:46:53.189Z,9.50
2023-02-14T13:49:49.256Z,9.40
2023-02-14T13:52:47.160Z,9.50
2023-02-14T13:55:37.439Z,9.50
2023-02-14T13:58:25.756Z,9.50
2023-02-14T14:01:31.858Z,9.60
2023-02-14T14:04:38.633Z,9.60
2023-02-14T14:07:30.708Z,9.50
2023-02-14T14:10:44.654Z,9.50
2023-02-14T14:13:57.619Z,9.60
2023-02-14T14:16:58.179Z,9.60
2023-02-14T14:19:47.155Z,9.50
2023-02-14T14:22:48.170Z,9.50
2023-02-14T14:25:37.242Z,9.60
2023-02-14T14:28:27.268Z,9.60
2023-02-14T14:31:15.038Z,9.60
2023-02-14T14:34:02.556Z,9.70
2023-02-14T14:36:49.225Z,9.70
2023-02-14T14:39:39.822Z,9.60
2023-02-14T14:42:30.494Z,9.60
2023-02-14T14:45:23.809Z,9.70
2023-02-14T14:48:13.664Z,9.70
2023-02-14T14:51:01.181Z,9.80
2023-02-14T14:53:51.482Z,9.70
2023-02-14T14:56:47.622Z,9.60
2023-02-14T14:59:36.156Z,9.70
2023-02-14T15:02:26.320Z,9.60
2023-02-14T15:05:25.934Z,9.60
2023-02-14T15:08:23.052Z,9.60
2023-02-14T15:11:34.084Z,9.60
2023-02-14T15:14:23.575Z,9.50
2023-02-14T15:17:19.418Z,9.50
2023-02-14T15:20:10.340Z,9.40
2023-02-14T15:22:57.774Z,9.40
2023-02-14T15:25:45.742Z,9.30
2023-02-14T15:28:35.264Z,9.20
2023-02-14T15:31:23.492Z,9.10
2023-02-14T15:34:12.083Z,9.10
2023-02-14T15:37:03.809Z,8.90
2023-02-14T15:39:53.309Z,8.90
2023-02-14T15:42:44.576Z,8.80
2023-02-14T15:45:31.895Z,8.70
2023-02-14T15:48:23.968Z,8.70
2023-02-14T15:51:17.720Z,8.60
2023-02-14T15:54:07.548Z,8.60
2023-02-14T15:56:56.638Z,8.50
2023-02-14T15:59:43.908Z,8.40
2023-02-14T16:02:36.133Z,8.30
2023-02-14T16:05:26.920Z,8.20
2023-02-14T16:08:34.059Z,8.20
2023-02-14T16:11:29.760Z,8.00
2023-02-14T16:14:31.296Z,8.10
2023-02-14T16:17:33.252Z,7.90
2023-02-14T16:20:23.770Z,7.90
2023-02-14T16:23:23.525Z,7.80
2023-02-14T16:26:10.268Z,7.70
2023-02-14T16:28:56.743Z,7.70
2023-02-14T16:32:06.212Z,7.70
2023-02-14T16:34:52.504Z,7.50
2023-02-14T16:37:40.322Z,7.40
2023-02-14T16:40:28.945Z,7.30
2023-02-14T16:43:16.839Z,7.30
2023-02-14T16:46:03.626Z,7.20
2023-02-14T16:48:52.017Z,7.20
2023-02-14T16:51:38.626Z,7.10
2023-02-14T16:54:28.745Z,7.10
2023-02-14T16:57:21.309Z,7.00
2023-02-14T17:00:09.567Z,6.90
2023-02-14T17:03:04.448Z,6.90
2023-02-14T17:05:51.276Z,6.80
2023-02-14T17:08:39.725Z,6.70
2023-02-14T17:11:29.085Z,6.70
2023-02-14T17:14:20.753Z,6.70
2023-02-14T17:17:07.825Z,6.60
2023-02-14T17:19:54.727Z,6.50
2023-02-14T17:22:43.206Z,6.50
2023-02-14T17:25:30.180Z,6.50
2023-02-14T17:28:18.156Z,6.50
2023-02-14T17:31:05.366Z,6.40
2023-02-14T17:33:52.201Z,6.40
2023-02-14T17:36:39.247Z,6.30
2023-02-14T17:39:25.925Z,6.30
2023-02-14T17:42:12.449Z,6.30
2023-02-14T17:45:00.687Z,6.20
2023-02-14T17:47:48.354Z,6.20
2023-02-14T17:50:34.799Z,6.00
2023-02-14T17:53:21.177Z,6.00
2023-02-14T17:56:08.664Z,6.00
2023-02-14T17:58:56.157Z,5.90
2023-02-14T18:01:44.168Z,5.80
2023-02-14T18:04:31.036Z,5.80
2023-02-14T18:07:17.794Z,5.80
2023-02-14T18:10:06.458Z,5.80
2023-02-14T18:12:52.989Z,5.80
2023-02-14T18:15:39.974Z,5.80
2023-02-14T18:18:27.577Z,5.70
2023-02-14T18:21:15.886Z,5.60
2023-02-14T18:24:02.400Z,5.60
2023-02-14T18:26:48.979Z,5.50
2023-02-14T18:29:36.307Z,5.50
2023-02-14T18:32:23.096Z,5.50
2023-02-14T18:35:11.083Z,5.60
2023-02-14T18:37:57.443Z,5.40
2023-02-14T18:40:43.924Z,5.40
2023-02-14T18:43:30.566Z,5.40
2023-02-14T18:46:18.797Z,5.40
2023-02-14T18:49:08.259Z,5.30
2023-02-14T18:51:57.283Z,5.20
2023-02-14T18:54:43.728Z,5.20
2023-02-14T18:57:30.357Z,5.20
2023-02-14T19:00:17.469Z,5.20
2023-02-14T19:03:04.038Z,5.20
2023-02-14T19:05:50.350Z,5.10
2023-02-14T19:08:40.550Z,5.10
2023-02-14T19:11:31.299Z,5.10
2023-02-14T19:14:19.370Z,5.10
2023-02-14T19:17:06.643Z,5.10
2023-02-14T19:19:53.191Z,5.10
2023-02-14T19:22:40.969Z,5.10
2023-02-14T19:25:32.447Z,5.10
2023-02-14T19:28:18.813Z,5.00
2023-02-14T19:31:05.285Z,5.10
2023-02-14T19:33:51.824Z,5.00
2023-02-14T19:36:38.156Z,5.00
2023-02-14T19:39:24.635Z,5.00
2023-02-14T19:42:12.628Z,5.00
2023-02-14T19:44:59.394Z,5.00
2023-02-14T19:47:47.307Z,4.90
2023-02-14T19:50:33.913Z,5.00
2023-02-14T19:53:20.512Z,5.00
2023-02-14T19:56:06.902Z,5.00
2023-02-14T19:58:56.055Z,4.90
2023-02-14T20:01:46.458Z,4.90
2023-02-14T20:04:33.764Z,4.90
2023-02-14T20:07:21.026Z,4.90
2023-02-14T20:10:09.216Z,4.80
2023-02-14T20:12:56.515Z,4.90
2023-02-14T20:15:45.748Z,4.90
2023-02-14T20:18:35.777Z,4.80
2023-02-14T20:21:28.263Z,4.80
2023-02-14T20:24:17.914Z,4.80
2023-02-14T20:27:05.685Z,4.90
2023-02-14T20:29:54.000Z,4.90
2023-02-14T20:32:42.671Z,4.90
2023-02-14T20:35:34.179Z,4.90
2023-02-14T20:38:21.413Z,4.90
2023-02-14T20:41:09.820Z,4.80
2023-02-14T20:44:04.248Z,4.80
2023-02-14T20:47:12.158Z,4.80
2023-02-14T20:50:01.133Z,4.80
2023-02-14T20:52:48.461Z,4.80
2023-02-14T20:55:35.482Z,4.70
2023-02-14T20:58:21.914Z,4.70
2023-02-14T21:01:09.367Z,4.70
2023-02-14T21:03:57.114Z,4.60
2023-02-14T21:06:45.007Z,4.70
2023-02-14T21:09:32.905Z,4.70
2023-02-14T21:12:19.416Z,4.70
2023-02-14T21:15:06.869Z,4.50
2023-02-14T21:17:53.274Z,4.50
2023-02-14T21:20:39.675Z,4.50
2023-02-14T21:23:27.616Z,4.50
2023-02-14T21:26:14.146Z,4.40
2023-02-14T21:29:00.590Z,4.50
2023-02-14T21:31:47.054Z,4.50
2023-02-14T21:34:34.257Z,4.40
2023-02-14T21:37:21.157Z,4.50
2023-02-14T21:40:10.222Z,4.40
2023-02-14T21:42:57.327Z,4.30
2023-02-14T21:45:54.980Z,4.30
2023-02-14T21:48:59.624Z,4.20
2023-02-14T21:51:46.664Z,4.20
2023-02-14T21:54:33.344Z,4.20
2023-02-14T21:57:21.193Z,4.20
2023-02-14T22:00:08.959Z,4.30
2023-02-14T22:02:55.400Z,4.30
2023-02-14T22:05:41.593Z,4.30
2023-02-14T22:08:28.005Z,4.30
2023-02-14T22:11:16.326Z,4.20
2023-02-14T22:14:04.439Z,4.10
2023-02-14T22:16:51.151Z,4.00
2023-02-14T22:19:37.432Z,3.90
2023-02-14T22:22:23.844Z,3.70
2023-02-14T22:25:10.204Z,3.60
2023-02-14T22:27:56.804Z,3.40
2023-02-14T22:30:44.777Z,3.30
2023-02-14T22:33:31.793Z,3.30
2023-02-14T22:36:18.964Z,3.30
2023-02-14T22:39:05.945Z,3.20
2023-02-14T22:41:52.359Z,3.30
2023-02-14T22:44:38.849Z,3.30
2023-02-14T22:47:26.624Z,3.40
2023-02-14T22:50:13.288Z,3.50
2023-02-14T22:52:59.908Z,3.50
2023-02-14T22:55:46.272Z,3.60
2023-02-14T22:58:32.715Z,3.60
2023-02-14T23:01:21.493Z,3.70
2023-02-14T23:04:09.578Z,3.60
2023-02-14T23:06:56.664Z,3.70
2023-02-14T23:09:43.334Z,3.70
2023-02-14T23:12:47.283Z,3.70
2023-02-14T23:15:51.119Z,3.70
2023-02-14T23:18:55.158Z,3.60
2023-02-14T23:21:55.589Z,3.50
2023-02-14T23:24:42.578Z,3.50
2023-02-14T23:27:32.517Z,3.60
2023-02-14T23:30:20.178Z,3.60
2023-02-14T23:33:06.830Z,3.60
2023-02-14T23:35:56.020Z,3.70
2023-02-14T23:38:43.701Z,3.60
2023-02-14T23:41:48.348Z,3.60
2023-02-14T23:44:35.735Z,3.70
2023-02-14T23:47:22.333Z,3.70
2023-02-14T23:50:09.385Z,3.70
2023-02-14T23:52:55.825Z,3.70
2023-02-14T23:55:43.555Z,3.70
2023-02-14T23:58:30.481Z,3.70
